ADDS METAR Data INFO
IDs: Format: Raw Decoded Include TAF

Data at: 2309 UTC 16 Jan 2018

KIIB 162255Z AUTO 31008KT 10SM CLR M15/M18 A3062 RMK AO2 T11461176
KIIB 162235Z AUTO 32007KT 10SM CLR M14/M17 A3061 RMK AO2 T11401172
KIIB 162215Z AUTO 31011KT 10SM CLR M13/M17 A3061 RMK AO2 T11351169
KIIB 162155Z AUTO 30012KT 10SM CLR M13/M16 A3060 RMK AO2 T11301164
KIIB 162135Z AUTO 29012KT 10SM SCT008 M13/M16 A3060 RMK AO2 T11271162
KIIB 162115Z AUTO 30013KT 10SM CLR M12/M16 A3060 RMK AO2 T11231159
KIIB 162055Z AUTO 32010KT 10SM CLR M12/M16 A3059 RMK AO2 T11221159
KIIB 162035Z AUTO 30012G16KT 10SM CLR M12/M16 A3059 RMK AO2 T11201157
KIIB 162015Z AUTO 31011KT 10SM CLR M12/M16 A3059 RMK AO2 T11201157
KIIB 161955Z AUTO 32010KT 10SM CLR M12/M16 A3059 RMK AO2 T11191158
KIIB 161935Z AUTO 31009KT 10SM CLR M12/M16 A3059 RMK AO2 T11201161
KIIB 161915Z AUTO 32009KT 10SM CLR M12/M16 A3060 RMK AO2 T11181160
KIIB 161855Z AUTO 31012KT 10SM CLR M12/M16 A3060 RMK AO2 T11211164
KIIB 161835Z AUTO 31010KT 10SM CLR M12/M16 A3059 RMK AO2 T11201160
KIIB 161815Z AUTO 31009KT 10SM CLR M12/M16 A3060 RMK AO2 T11221162
KIIB 161755Z AUTO 31010G15KT 10SM CLR M12/M16 A3061 RMK AO2 T11221160
KIIB 161735Z AUTO 32008KT 10SM CLR M12/M16 A3061 RMK AO2 T11251161
KIIB 161715Z AUTO 33012KT 10SM CLR M13/M16 A3062 RMK AO2 T11271160
KIIB 161655Z AUTO 33013KT 7SM CLR M13/M16 A3062 RMK AO2 T11271159
KIIB 161635Z AUTO 32012KT 5SM HZ CLR M13/M16 A3062 RMK AO2 T11311160
KIIB 161615Z AUTO 34011KT 7SM -SN SCT011 SCT014 BKN037 M13/M16 A3062 RMK AO2 T11351161
KIIB 161555Z AUTO 33011KT 3SM -SN SCT011 SCT017 OVC037 M14/M16 A3061 RMK AO2 T11401165
KIIB 161535Z AUTO 33009KT 5SM -SN OVC011 M14/M17 A3061 RMK AO2 T11451171
KIIB 161515Z AUTO 32010KT 4SM -SN SCT011 BKN015 OVC026 M15/M18 A3060 RMK AO2 T11511177
KIIB 161455Z AUTO 32008KT 10SM SCT008 BKN026 OVC055 M15/M18 A3059 RMK AO2 T11551180
KIIB 161435Z AUTO 31007KT 10SM OVC008 M16/M18 A3058 RMK AO2 T11581185
KIIB 161415Z AUTO 32008KT 10SM BKN010 OVC049 M16/M19 A3058 RMK AO2 T11631188
KIIB 161355Z AUTO 32011KT 10SM -SN OVC049 M16/M19 A3058 RMK AO2 T11651191
KIIB 161335Z AUTO 32008KT 10SM OVC049 M17/M19 A3057 RMK AO2 T11701195
KIIB 161315Z AUTO 32010KT 10SM OVC049 M17/M20 A3056 RMK AO2 T11701197
KIIB 161255Z AUTO 32010G15KT 10SM BKN013 OVC049 M17/M19 A3056 RMK AO2 T11671194
KIIB 161235Z AUTO 32010KT 10SM OVC013 M17/M19 A3055 RMK AO2 T11671193
KIIB 161215Z AUTO 31009KT 10SM OVC013 M16/M19 A3055 RMK AO2 T11651191
KIIB 161155Z AUTO 32009KT 10SM OVC015 M16/M19 A3054 RMK AO2 T11651190
KIIB 161135Z AUTO 32008KT 10SM OVC015 M16/M19 A3054 RMK AO2 T11651191
KIIB 161115Z AUTO 32010KT 10SM OVC015 M17/M19 A3053 RMK AO2 T11681195
KIIB 161055Z AUTO 32010KT 10SM OVC013 M17/M19 A3053 RMK AO2 T11691195
KIIB 161035Z AUTO 32010KT 10SM OVC013 M17/M20 A3053 RMK AO2 T11701196
KIIB 161015Z AUTO 32009G14KT 10SM OVC013 M17/M20 A3053 RMK AO2 T11711198
KIIB 160955Z AUTO 31009KT 10SM OVC013 M17/M20 A3052 RMK AO2 T11751200
KIIB 160935Z AUTO 31010KT 10SM OVC013 M18/M20 A3051 RMK AO2 T11791204
KIIB 160915Z AUTO 31009KT 10SM OVC013 M18/M21 A3051 RMK AO2 T11831206
KIIB 160855Z AUTO 32008KT 7SM -SN SCT013 OVC050 M19/M21 A3050 RMK AO2 T11861210
KIIB 160835Z AUTO 31008KT 7SM -SN OVC050 M19/M22 A3050 RMK AO2 T11921216
KIIB 160815Z AUTO 31009KT 10SM OVC050 M20/M22 A3050 RMK AO2 T11991224
KIIB 160755Z AUTO 31011KT 10SM -SN BKN050 M20/M23 A3049 RMK AO2 T12051230
KIIB 160735Z AUTO 31011KT 7SM -SN BKN050 M21/M23 A3049 RMK AO2 T12061232
KIIB 160715Z AUTO 31013KT 10SM -SN SCT048 M21/M23 A3049 RMK AO2 T12071235
KIIB 160655Z AUTO 31013G19KT 10SM SCT048 M21/M23 A3049 RMK AO2 T12061235
KIIB 160635Z AUTO 31014G19KT 10SM BKN048 M20/M23 A3049 RMK AO2 T12031230
KIIB 160615Z AUTO 31014G20KT 10SM SCT038 SCT050 M20/M23 A3049 RMK AO2 T12031230
KIIB 160555Z AUTO 31011G18KT 10SM BKN038 M20/M22 A3049 RMK AO2 T11981225
KIIB 160535Z AUTO 31014KT 10SM SCT036 M20/M23 A3049 RMK AO2 T12021228
KIIB 160515Z AUTO 31013G19KT 10SM CLR M20/M23 A3049 RMK AO2 T12011229
KIIB 160455Z AUTO 31016G22KT 10SM CLR M20/M23 A3048 RMK AO2 T12001227
KIIB 160435Z AUTO 31014G20KT 10SM CLR M20/M22 A3047 RMK AO2 T11981225
KIIB 160415Z AUTO 31015G20KT 10SM CLR M20/M22 A3047 RMK AO2 T11961225
KIIB 160355Z AUTO 31014KT 10SM SCT026 SCT039 M19/M22 A3047 RMK AO2 T11951221
KIIB 160335Z AUTO 31013G17KT 5SM HZ SCT018 BKN026 OVC039 M19/M21 A3046 RMK AO2 T11901215
KIIB 160315Z AUTO 31013G22KT 5SM BR SCT009 BKN030 OVC080 M19/M21 A3045 RMK AO2 T11891212
KIIB 160255Z AUTO 31012G17KT 7SM SCT027 BKN047 OVC080 M19/M21 A3046 RMK AO2 T11861211
KIIB 160235Z AUTO 30014KT 10SM BKN080 M19/M22 A3045 RMK AO2 T11901216
KIIB 160215Z AUTO 31014KT 10SM CLR M19/M22 A3045 RMK AO2 T11901216
KIIB 160155Z AUTO 30014KT 10SM CLR M19/M21 A3045 RMK AO2 T11881215
KIIB 160135Z AUTO 31012KT 10SM CLR M19/M21 A3045 RMK AO2 T11871212
KIIB 160115Z AUTO 30013G17KT 10SM CLR M18/M21 A3044 RMK AO2 T11851210
KIIB 160055Z AUTO 31014G19KT 10SM CLR M18/M21 A3043 RMK AO2 T11821210
KIIB 160035Z AUTO 31015KT 10SM SCT045 M18/M21 A3043 RMK AO2 T11811210
KIIB 160015Z AUTO 31014KT 7SM SCT012 SCT045 M18/M20 A3044 RMK AO2 T11781205
KIIB 152355Z AUTO 31013G19KT 10SM CLR M18/M21 A3042 RMK AO2 T11771206
KIIB 152335Z AUTO 31013G21KT 10SM SCT025 SCT032 M18/M21 A3041 RMK AO2 T11761206
KIIB 152315Z AUTO 31015G23KT 10SM SCT012 BKN017 OVC031 M17/M20 A3040 RMK AO2 T11731200
KIIB 152255Z AUTO 31020G27KT 5SM HZ SCT010 BKN015 OVC042 M17/M20 A3039 RMK AO2 T11691200
KIIB 152235Z AUTO 31017G22KT 4SM HZ SCT010 SCT014 OVC042 M16/M19 A3039 RMK AO2 T11631191
KIIB 152215Z AUTO 31017G23KT 4SM HZ BKN012 BKN023 OVC042 M16/M19 A3038 RMK AO2 T11611191
KIIB 152155Z AUTO 31018G25KT 5SM HZ BKN010 BKN018 OVC027 M16/M20 A3036 RMK AO2 T11611196
KIIB 152135Z AUTO 31019G25KT 3SM HZ BKN010 OVC015 M16/M19 A3036 RMK AO2 T11591191
KIIB 152115Z AUTO 31019G25KT 3SM HZ BKN010 OVC016 M15/M19 A3035 RMK AO2 T11551188
KIIB 152055Z AUTO 31019G25KT 1 3/4SM HZ BKN008 OVC013 M15/M18 A3034 RMK AO2 T11521181
KIIB 152035Z AUTO 32013G22KT 3SM HZ BKN012 OVC017 M15/M18 A3033 RMK AO2 T11521185
KIIB 152015Z AUTO 32020G25KT 3SM HZ SCT010 OVC014 M15/M18 A3030 RMK AO2 T11481184
KIIB 151955Z AUTO 32018G24KT 3SM HZ SCT008 BKN014 OVC075 M14/M18 A3030 RMK AO2 T11441181
KIIB 151935Z AUTO 31015G25KT 2SM HZ BKN009 OVC015 M14/M18 A3030 RMK AO2 T11451177
KIIB 151915Z AUTO 30021G27KT 1 3/4SM HZ OVC009 M14/M17 A3029 RMK AO2 T11451175
KIIB 151855Z AUTO 31018G27KT 1 1/4SM HZ OVC009 M15/M17 A3029 RMK AO2 T11461174
KIIB 151835Z AUTO 31015G25KT 2SM HZ OVC012 M14/M17 A3029 RMK AO2 T11431175
KIIB 151815Z AUTO 32018G25KT 2 1/2SM HZ OVC010 M15/M18 A3029 RMK AO2 T11461178
KIIB 151755Z AUTO 31019G26KT 2 1/2SM HZ OVC012 M15/M18 A3029 RMK AO2 T11501180
KIIB 151735Z AUTO 31017G24KT 2 1/2SM HZ OVC012 M15/M18 A3029 RMK AO2 T11521183
KIIB 151715Z AUTO 31018G27KT 2 1/2SM HZ OVC010 M15/M18 A3029 RMK AO2 T11511182
KIIB 151655Z AUTO 30023G29KT 2 1/2SM HZ OVC010 M15/M18 A3028 RMK AO2 T11521183
KIIB 151615Z AUTO 30020G24KT 2SM HZ OVC010 M15/M18 A3027 RMK AO2 T11531181
KIIB 151555Z AUTO 30019G24KT 2SM HZ OVC012 M15/M18 A3027 RMK AO2 T11551183
KIIB 151535Z AUTO 31017G25KT 2 1/2SM HZ SCT012 BKN019 OVC043 M15/M18 A3026 RMK AO2 T11551184
KIIB 151515Z AUTO 31016G23KT 3SM HZ OVC043 M16/M18 A3025 RMK AO2 T11561185
KIIB 151455Z AUTO 31017G24KT 3SM HZ OVC043 M15/M18 A3024 RMK AO2 T11551183
KIIB 151435Z AUTO 31019G25KT 4SM HZ OVC041 M15/M18 A3023 RMK AO2 T11551182
KIIB 151415Z AUTO 31019G27KT 5SM BR OVC039 M15/M18 A3022 RMK AO2 T11521178
KIIB 151355Z AUTO 31021G25KT 4SM BR OVC037 M15/M17 A3021 RMK AO2 T11501173
KIIB 151335Z AUTO 31017G23KT 7SM OVC037 M15/M17 A3020 RMK AO2 T11471173
KIIB 151315Z AUTO 31016G22KT 7SM OVC037 M15/M17 A3019 RMK AO2 T11461170
KIIB 151255Z AUTO 31019G25KT 5SM BR OVC035 M14/M17 A3019 RMK AO2 T11451167
KIIB 151235Z AUTO 30018G24KT 7SM OVC035 M14/M17 A3018 RMK AO2 T11421166
KIIB 151215Z AUTO 31018G23KT 5SM BR OVC035 M14/M16 A3017 RMK AO2 T11421165
KIIB 151155Z AUTO 31014G20KT 7SM BKN033 OVC049 M14/M16 A3017 RMK AO2 T11411165
KIIB 151135Z AUTO 31015G24KT 7SM -SN SCT031 OVC049 M14/M17 A3016 RMK AO2 T11411166
KIIB 151115Z AUTO 31017G23KT 7SM -SN OVC047 M14/M16 A3015 RMK AO2 T11401165